Terminal Aerodrome Forecast
Issued by NWS

Home | Current Version | Previous Version | Text Only | Print | Product List | Glossary On
Versions: 1 2 3 4 5 6 7 8 9 10 11 12 13 14 15 16 17
603
FTUS46 KSEW 201919 AAA
TAFCLM
TAF AMD
KCLM 201919Z 2019/2118 09003KT P6SM VCSH SCT050 OVC080
     FM211200 09006KT P6SM -RA SCT040 OVC050
     FM211600 26005KT 6SM -RA BR SCT025 BKN045 OVC060=

USA.gov is the U.S. government's official web portal to all federal, state and local government web resources and services.